createdAt,value
2022-12-25T00:02:05.814Z,6.60
2022-12-25T00:04:33.815Z,6.60
2022-12-25T00:07:01.839Z,6.70
2022-12-25T00:09:30.283Z,6.80
2022-12-25T00:11:59.694Z,6.80
2022-12-25T00:14:27.682Z,6.90
2022-12-25T00:16:55.809Z,7.00
2022-12-25T00:19:23.827Z,7.00
2022-12-25T00:21:51.893Z,7.10
2022-12-25T00:24:19.900Z,7.10
2022-12-25T00:26:47.972Z,7.10
2022-12-25T00:29:17.472Z,7.20
2022-12-25T00:31:45.555Z,7.20
2022-12-25T00:34:13.634Z,7.30
2022-12-25T00:36:42.379Z,7.30
2022-12-25T00:39:11.102Z,7.30
2022-12-25T00:41:56.688Z,7.30
2022-12-25T00:44:26.063Z,7.40
2022-12-25T00:46:54.338Z,7.40
2022-12-25T00:49:23.570Z,7.40
2022-12-25T00:51:52.379Z,7.40
2022-12-25T00:54:20.873Z,7.40
2022-12-25T00:56:49.017Z,7.40
2022-12-25T00:59:17.261Z,7.50
2022-12-25T01:01:46.762Z,7.50
2022-12-25T01:04:14.858Z,7.50
2022-12-25T01:06:43.003Z,7.50
2022-12-25T01:09:28.531Z,7.50
2022-12-25T01:11:56.559Z,7.50
2022-12-25T01:14:24.569Z,7.60
2022-12-25T01:16:54.075Z,7.60
2022-12-25T01:19:22.207Z,7.60
2022-12-25T01:21:50.219Z,7.50
2022-12-25T01:24:18.229Z,7.50
2022-12-25T01:26:46.251Z,7.40
2022-12-25T01:29:14.361Z,7.40
2022-12-25T01:31:42.438Z,7.30
2022-12-25T01:34:11.840Z,7.30
2022-12-25T01:36:39.860Z,7.30
2022-12-25T01:39:07.880Z,7.20
2022-12-25T01:41:35.905Z,7.20
2022-12-25T01:44:07.409Z,7.20
2022-12-25T01:46:36.302Z,7.20
2022-12-25T01:49:07.490Z,7.20
2022-12-25T01:51:41.008Z,7.20
2022-12-25T01:54:12.382Z,7.20
2022-12-25T01:56:42.386Z,7.10
2022-12-25T01:59:11.438Z,7.20
2022-12-25T02:01:39.663Z,7.10
2022-12-25T02:04:15.768Z,7.10
2022-12-25T02:06:45.753Z,7.10
2022-12-25T02:09:14.951Z,7.00
2022-12-25T02:11:57.895Z,7.10
2022-12-25T02:14:26.645Z,7.00
2022-12-25T02:17:03.063Z,7.00
2022-12-25T02:19:47.803Z,7.00
2022-12-25T02:22:29.159Z,7.10
2022-12-25T02:25:14.163Z,7.10
2022-12-25T02:28:00.590Z,7.10
2022-12-25T02:30:33.253Z,7.10
2022-12-25T02:33:19.398Z,7.10
2022-12-25T02:35:51.923Z,7.10
2022-12-25T02:38:23.891Z,7.10
2022-12-25T02:40:56.150Z,7.10
2022-12-25T02:43:48.492Z,7.20
2022-12-25T02:46:37.537Z,7.20
2022-12-25T02:49:25.597Z,7.20
2022-12-25T02:52:15.519Z,7.20
2022-12-25T02:55:00.526Z,7.20
2022-12-25T02:57:47.324Z,7.30
2022-12-25T03:00:34.949Z,7.30
2022-12-25T03:03:24.292Z,7.40
2022-12-25T03:06:13.039Z,7.40
2022-12-25T03:08:43.930Z,7.40
2022-12-25T03:11:31.096Z,7.50
2022-12-25T03:14:16.652Z,7.50
2022-12-25T03:16:53.807Z,7.50
2022-12-25T03:19:43.069Z,7.50
2022-12-25T03:22:33.572Z,7.50
2022-12-25T03:25:19.329Z,7.50
2022-12-25T03:27:50.477Z,7.60
2022-12-25T03:30:36.528Z,7.60
2022-12-25T03:33:36.789Z,7.60
2022-12-25T03:36:04.880Z,7.60
2022-12-25T03:39:05.031Z,7.70
2022-12-25T03:41:56.344Z,7.70
2022-12-25T03:44:56.530Z,7.70
2022-12-25T03:47:46.559Z,7.70
2022-12-25T03:50:37.255Z,7.70
2022-12-25T03:53:28.646Z,7.70
2022-12-25T03:56:16.003Z,7.70
2022-12-25T03:59:10.416Z,7.70
2022-12-25T04:01:56.063Z,7.80
2022-12-25T04:04:41.543Z,7.80
2022-12-25T04:07:28.204Z,7.90
2022-12-25T04:10:13.815Z,7.90
2022-12-25T04:12:59.206Z,8.00
2022-12-25T04:15:45.349Z,8.00
2022-12-25T04:18:30.868Z,8.10
2022-12-25T04:21:17.354Z,8.10
2022-12-25T04:24:04.083Z,8.20
2022-12-25T04:26:49.538Z,8.10
2022-12-25T04:29:40.279Z,8.10
2022-12-25T04:32:22.332Z,8.10
2022-12-25T04:35:07.781Z,8.20
2022-12-25T04:37:35.877Z,8.20
2022-12-25T04:40:06.278Z,8.20
2022-12-25T04:42:34.359Z,8.20
2022-12-25T04:45:02.364Z,8.20
2022-12-25T04:47:30.401Z,8.20
2022-12-25T04:49:58.436Z,8.20
2022-12-25T04:52:26.455Z,8.20
2022-12-25T04:54:54.496Z,8.20
2022-12-25T04:57:23.873Z,8.20
2022-12-25T04:59:51.868Z,8.10
2022-12-25T05:02:20.099Z,8.10
2022-12-25T05:04:48.381Z,8.10
2022-12-25T05:07:17.101Z,8.10
2022-12-25T05:09:45.378Z,8.10
2022-12-25T05:12:14.545Z,8.10
2022-12-25T05:14:44.029Z,8.00
2022-12-25T05:17:12.080Z,8.10
2022-12-25T05:19:40.118Z,8.10
2022-12-25T05:22:08.270Z,8.10
2022-12-25T05:24:36.304Z,8.00
2022-12-25T05:27:04.458Z,8.00
2022-12-25T05:29:32.461Z,8.00
2022-12-25T05:32:02.592Z,8.00
2022-12-25T05:34:30.598Z,8.00
2022-12-25T05:36:58.637Z,8.00
2022-12-25T05:39:26.740Z,8.00
2022-12-25T05:41:54.760Z,8.00
2022-12-25T05:44:22.954Z,8.00
2022-12-25T05:46:51.044Z,8.00
2022-12-25T05:49:20.550Z,8.00
2022-12-25T05:51:48.550Z,8.00
2022-12-25T05:54:16.771Z,8.00
2022-12-25T05:56:44.850Z,8.00
2022-12-25T05:59:12.851Z,8.00
2022-12-25T06:01:41.016Z,8.00
2022-12-25T06:04:36.831Z,7.90
2022-12-25T06:07:04.822Z,7.90
2022-12-25T06:09:32.873Z,7.90
2022-12-25T06:12:01.078Z,7.90
2022-12-25T06:14:29.214Z,7.90
2022-12-25T06:16:57.296Z,7.90
2022-12-25T06:19:25.409Z,7.90
2022-12-25T06:21:56.317Z,7.90
2022-12-25T06:24:24.780Z,7.90
2022-12-25T06:26:52.932Z,7.90
2022-12-25T06:29:21.004Z,7.90
2022-12-25T06:31:49.083Z,7.90
2022-12-25T06:34:17.431Z,8.00
2022-12-25T06:36:45.436Z,8.00
2022-12-25T06:39:15.139Z,8.00
2022-12-25T06:41:43.126Z,8.00
2022-12-25T06:44:11.180Z,8.00
2022-12-25T06:46:39.214Z,8.00
2022-12-25T06:49:07.258Z,8.00
2022-12-25T06:51:35.503Z,7.90
2022-12-25T06:54:04.487Z,8.00
2022-12-25T06:56:34.887Z,8.00
2022-12-25T06:59:05.676Z,7.90
2022-12-25T07:01:36.704Z,7.90
2022-12-25T07:04:07.231Z,7.90
2022-12-25T07:06:35.850Z,7.90
2022-12-25T07:09:03.973Z,7.90
2022-12-25T07:11:33.411Z,7.90
2022-12-25T07:14:01.646Z,7.90
2022-12-25T07:16:29.904Z,8.00
2022-12-25T07:18:59.986Z,8.00
2022-12-25T07:21:28.064Z,8.00
2022-12-25T07:23:56.143Z,8.00
2022-12-25T07:26:24.198Z,8.10
2022-12-25T07:28:53.598Z,8.10
2022-12-25T07:31:21.637Z,8.10
2022-12-25T07:33:53.448Z,8.10
2022-12-25T07:36:21.680Z,8.20
2022-12-25T07:38:50.537Z,8.20
2022-12-25T07:41:18.587Z,8.20
2022-12-25T07:43:50.028Z,8.20
2022-12-25T07:46:19.872Z,8.30
2022-12-25T07:48:50.702Z,8.30
2022-12-25T07:51:18.958Z,8.30
2022-12-25T07:53:47.321Z,8.30
2022-12-25T07:56:17.488Z,8.30
2022-12-25T07:58:45.593Z,8.40
2022-12-25T08:01:16.643Z,8.40
2022-12-25T08:03:51.008Z,8.40
2022-12-25T08:06:19.933Z,8.40
2022-12-25T08:08:48.743Z,8.40
2022-12-25T08:11:16.781Z,8.40
2022-12-25T08:13:44.858Z,8.40
2022-12-25T08:16:13.111Z,8.40
2022-12-25T08:18:42.984Z,8.40
2022-12-25T08:21:15.254Z,8.40
2022-12-25T08:23:45.237Z,8.50
2022-12-25T08:26:15.824Z,8.50
2022-12-25T08:28:43.961Z,8.40
2022-12-25T08:31:14.486Z,8.50
2022-12-25T08:33:43.905Z,8.50
2022-12-25T08:36:13.792Z,8.50
2022-12-25T08:38:42.683Z,8.50
2022-12-25T08:41:11.593Z,8.40
2022-12-25T08:43:40.409Z,8.40
2022-12-25T08:46:09.196Z,8.50
2022-12-25T08:48:37.683Z,8.50
2022-12-25T08:51:09.239Z,8.50
2022-12-25T08:53:38.742Z,8.60
2022-12-25T08:56:07.337Z,8.60
2022-12-25T08:58:35.889Z,8.60
2022-12-25T09:01:04.049Z,8.60
2022-12-25T09:03:33.124Z,8.70
2022-12-25T09:06:04.519Z,8.70
2022-12-25T09:08:32.690Z,8.70
2022-12-25T09:11:04.387Z,8.70
2022-12-25T09:13:32.983Z,8.70
2022-12-25T09:16:01.811Z,8.80
2022-12-25T09:18:29.905Z,8.80
2022-12-25T09:21:01.709Z,8.90
2022-12-25T09:23:29.832Z,8.90
2022-12-25T09:25:59.862Z,8.90
2022-12-25T09:28:29.361Z,9.00
2022-12-25T09:30:57.759Z,9.00
2022-12-25T09:33:26.423Z,9.10
2022-12-25T09:35:55.676Z,9.10
2022-12-25T09:38:23.964Z,9.10
2022-12-25T09:41:00.464Z,9.10
2022-12-25T09:43:33.296Z,9.20
2022-12-25T09:46:04.934Z,9.20
2022-12-25T09:48:36.877Z,9.10
2022-12-25T09:51:10.657Z,9.10
2022-12-25T09:53:41.109Z,9.10
2022-12-25T09:56:14.785Z,9.00
2022-12-25T09:58:44.959Z,9.10
2022-12-25T10:01:20.600Z,9.10
2022-12-25T10:04:20.704Z,9.10
2022-12-25T10:07:03.563Z,9.20
2022-12-25T10:09:52.629Z,9.10
2022-12-25T10:12:36.820Z,9.20
2022-12-25T10:15:27.101Z,9.20
2022-12-25T10:18:12.429Z,9.30
2022-12-25T10:20:47.766Z,9.20
2022-12-25T10:23:20.004Z,9.20
2022-12-25T10:25:49.104Z,9.20
2022-12-25T10:28:24.494Z,9.20
2022-12-25T10:30:56.924Z,9.30
2022-12-25T10:33:25.243Z,9.20
2022-12-25T10:35:53.365Z,9.20
2022-12-25T10:38:21.586Z,9.20
2022-12-25T10:41:11.912Z,9.00
2022-12-25T10:43:44.536Z,9.00
2022-12-25T10:46:16.725Z,9.10
2022-12-25T10:48:48.223Z,9.20
2022-12-25T10:51:31.057Z,9.20
2022-12-25T10:53:59.853Z,9.30
2022-12-25T10:56:27.947Z,9.30
2022-12-25T10:59:06.019Z,9.30
2022-12-25T11:01:35.565Z,9.30
2022-12-25T11:04:03.797Z,9.30
2022-12-25T11:06:34.428Z,9.20
2022-12-25T11:09:03.473Z,9.20
2022-12-25T11:11:32.131Z,9.30
2022-12-25T11:14:02.505Z,9.30
2022-12-25T11:16:32.811Z,9.30
2022-12-25T11:19:03.111Z,9.30
2022-12-25T11:21:33.114Z,9.30
2022-12-25T11:24:03.005Z,9.30
2022-12-25T11:26:32.981Z,9.30
2022-12-25T11:29:01.174Z,9.30
2022-12-25T11:31:38.199Z,9.30
2022-12-25T11:34:14.293Z,9.50
2022-12-25T11:36:46.375Z,9.40
2022-12-25T11:39:23.876Z,9.40
2022-12-25T11:41:54.841Z,9.40
2022-12-25T11:44:38.864Z,9.40
2022-12-25T11:47:14.595Z,9.40
2022-12-25T11:49:51.497Z,9.40
2022-12-25T11:52:22.874Z,9.40
2022-12-25T11:54:56.113Z,9.50
2022-12-25T11:57:26.134Z,9.50
2022-12-25T11:59:58.547Z,9.60
2022-12-25T12:02:33.575Z,9.60
2022-12-25T12:05:12.819Z,9.80
2022-12-25T12:07:52.289Z,9.90
2022-12-25T12:10:26.508Z,9.90
2022-12-25T12:13:00.737Z,10.00
2022-12-25T12:15:30.561Z,10.20
2022-12-25T12:18:09.022Z,10.10
2022-12-25T12:20:38.921Z,10.10
2022-12-25T12:23:16.478Z,10.10
2022-12-25T12:25:45.858Z,10.10
2022-12-25T12:28:22.486Z,10.10
2022-12-25T12:31:01.909Z,10.10
2022-12-25T12:33:35.704Z,10.10
2022-12-25T12:36:06.489Z,10.10
2022-12-25T12:38:35.803Z,10.10
2022-12-25T12:41:06.440Z,10.10
2022-12-25T12:43:40.162Z,10.20
2022-12-25T12:46:21.543Z,10.30
2022-12-25T12:48:54.440Z,10.30
2022-12-25T12:51:31.591Z,10.30
2022-12-25T12:54:20.199Z,10.30
2022-12-25T12:57:02.791Z,10.30
2022-12-25T12:59:39.207Z,10.30
2022-12-25T13:02:27.984Z,10.20
2022-12-25T13:05:03.782Z,10.30
2022-12-25T13:07:54.967Z,10.40
2022-12-25T13:10:28.260Z,10.30
2022-12-25T13:12:59.299Z,10.40
2022-12-25T13:15:31.609Z,10.40
2022-12-25T13:18:03.854Z,10.50
2022-12-25T13:20:41.274Z,10.50
2022-12-25T13:23:26.255Z,10.50
2022-12-25T13:25:55.495Z,10.50
2022-12-25T13:28:28.247Z,10.50
2022-12-25T13:31:03.536Z,10.50
2022-12-25T13:33:31.748Z,10.50
2022-12-25T13:36:00.002Z,10.50
2022-12-25T13:38:30.144Z,10.40
2022-12-25T13:41:17.488Z,10.40
2022-12-25T13:43:46.727Z,10.40
2022-12-25T13:46:15.942Z,10.40
2022-12-25T13:48:44.249Z,10.50
2022-12-25T13:51:17.143Z,10.50
2022-12-25T13:53:46.560Z,10.50
2022-12-25T13:56:16.710Z,10.60
2022-12-25T13:58:48.432Z,10.60
2022-12-25T14:01:18.580Z,10.50
2022-12-25T14:03:48.350Z,10.50
2022-12-25T14:06:20.079Z,10.50
2022-12-25T14:08:50.644Z,10.50
2022-12-25T14:11:22.148Z,10.60
2022-12-25T14:13:53.362Z,10.60
2022-12-25T14:16:22.475Z,10.60
2022-12-25T14:18:55.774Z,10.70
2022-12-25T14:21:30.313Z,10.50
2022-12-25T14:24:00.173Z,10.60
2022-12-25T14:26:30.957Z,10.50
2022-12-25T14:29:12.666Z,10.50
2022-12-25T14:31:46.638Z,10.50
2022-12-25T14:34:18.758Z,10.60
2022-12-25T14:36:46.905Z,10.50
2022-12-25T14:39:32.178Z,10.50
2022-12-25T14:42:02.592Z,10.60
2022-12-25T14:44:37.760Z,10.60
2022-12-25T14:47:13.911Z,10.60
2022-12-25T14:49:41.990Z,10.60
2022-12-25T14:52:19.450Z,10.60
2022-12-25T14:54:51.824Z,10.60
2022-12-25T14:57:26.962Z,10.60
2022-12-25T15:00:05.479Z,10.70
2022-12-25T15:02:43.881Z,10.60
2022-12-25T15:05:34.723Z,10.50
2022-12-25T15:08:25.067Z,10.50
2022-12-25T15:11:00.478Z,10.60
2022-12-25T15:13:32.461Z,10.50
2022-12-25T15:16:05.316Z,10.50
2022-12-25T15:18:38.648Z,10.40
2022-12-25T15:21:07.110Z,10.40
2022-12-25T15:23:35.247Z,10.40
2022-12-25T15:26:04.657Z,10.40
2022-12-25T15:28:33.808Z,10.40
2022-12-25T15:31:01.848Z,10.40
2022-12-25T15:33:30.137Z,10.40
2022-12-25T15:35:58.177Z,10.50
2022-12-25T15:38:26.288Z,10.50
2022-12-25T15:40:54.304Z,10.50
2022-12-25T15:43:40.375Z,10.50
2022-12-25T15:46:10.322Z,10.50
2022-12-25T15:48:38.481Z,10.50
2022-12-25T15:51:06.911Z,10.40
2022-12-25T15:53:34.947Z,10.50
2022-12-25T15:56:03.014Z,10.50
2022-12-25T15:58:32.430Z,10.50
2022-12-25T16:01:00.459Z,10.50
2022-12-25T16:03:28.554Z,10.50
2022-12-25T16:05:56.808Z,10.50
2022-12-25T16:08:24.931Z,10.50
2022-12-25T16:10:53.835Z,10.50
2022-12-25T16:13:23.093Z,10.50
2022-12-25T16:15:52.641Z,10.40
2022-12-25T16:18:21.195Z,10.50
2022-12-25T16:20:49.201Z,10.40
2022-12-25T16:23:17.269Z,10.50
2022-12-25T16:25:45.351Z,10.50
2022-12-25T16:28:13.699Z,10.50
2022-12-25T16:30:42.445Z,10.50
2022-12-25T16:33:12.414Z,10.50
2022-12-25T16:35:40.417Z,10.50
2022-12-25T16:38:08.460Z,10.50
2022-12-25T16:40:36.513Z,10.50
2022-12-25T16:43:04.626Z,10.50
2022-12-25T16:45:32.688Z,10.50
2022-12-25T16:48:00.733Z,10.50
2022-12-25T16:50:30.222Z,10.60
2022-12-25T16:52:58.297Z,10.50
2022-12-25T16:55:30.027Z,10.50
2022-12-25T16:57:58.655Z,10.50
2022-12-25T17:00:27.045Z,10.50
2022-12-25T17:02:56.020Z,10.50
2022-12-25T17:05:24.597Z,10.50
2022-12-25T17:07:54.119Z,10.50
2022-12-25T17:10:22.628Z,10.50
2022-12-25T17:12:50.708Z,10.60
2022-12-25T17:15:19.017Z,10.50
2022-12-25T17:17:47.190Z,10.50
2022-12-25T17:20:18.199Z,10.60
2022-12-25T17:22:49.798Z,10.50
2022-12-25T17:25:19.235Z,10.50
2022-12-25T17:27:50.444Z,10.50
2022-12-25T17:30:18.530Z,10.50
2022-12-25T17:32:47.085Z,10.50
2022-12-25T17:35:15.220Z,10.50
2022-12-25T17:37:43.264Z,10.50
2022-12-25T17:40:12.130Z,10.50
2022-12-25T17:42:41.542Z,10.50
2022-12-25T17:45:10.495Z,10.50
2022-12-25T17:47:38.559Z,10.50
2022-12-25T17:50:08.301Z,10.50
2022-12-25T17:52:36.324Z,10.50
2022-12-25T17:55:05.001Z,10.50
2022-12-25T17:57:33.026Z,10.40
2022-12-25T18:00:02.396Z,10.50
2022-12-25T18:02:33.094Z,10.40
2022-12-25T18:05:01.297Z,10.40
2022-12-25T18:07:29.329Z,10.40
2022-12-25T18:09:57.524Z,10.40
2022-12-25T18:12:25.567Z,10.40
2022-12-25T18:14:53.777Z,10.40
2022-12-25T18:17:23.134Z,10.40
2022-12-25T18:19:51.415Z,10.40
2022-12-25T18:22:19.413Z,10.40
2022-12-25T18:24:47.471Z,10.40
2022-12-25T18:27:15.612Z,10.40
2022-12-25T18:29:43.636Z,10.50
2022-12-25T18:32:11.637Z,10.40
2022-12-25T18:34:41.137Z,10.40
2022-12-25T18:37:09.155Z,10.50
2022-12-25T18:39:37.178Z,10.50
2022-12-25T18:42:22.641Z,10.50
2022-12-25T18:44:50.669Z,10.50
2022-12-25T18:47:18.845Z,10.50
2022-12-25T18:49:48.548Z,10.50
2022-12-25T18:52:49.079Z,10.50
2022-12-25T18:55:04.962Z,10.40
2022-12-25T18:57:34.179Z,10.40
2022-12-25T19:00:03.346Z,10.50
2022-12-25T19:02:32.954Z,10.50
2022-12-25T19:05:02.331Z,10.50
2022-12-25T19:07:30.506Z,10.60
2022-12-25T19:09:59.163Z,10.50
2022-12-25T19:12:28.000Z,10.50
2022-12-25T19:14:56.021Z,10.50
2022-12-25T19:17:31.178Z,10.50
2022-12-25T19:19:59.718Z,10.50
2022-12-25T19:22:30.609Z,10.50
2022-12-25T19:24:58.614Z,10.50
2022-12-25T19:27:26.641Z,10.60
2022-12-25T19:29:54.628Z,10.60
2022-12-25T19:32:22.756Z,10.60
2022-12-25T19:34:50.848Z,10.70
2022-12-25T19:37:18.879Z,10.60
2022-12-25T19:39:48.431Z,10.50
2022-12-25T19:42:18.752Z,10.50
2022-12-25T19:44:46.771Z,10.50
2022-12-25T19:47:14.973Z,10.50
2022-12-25T19:49:43.960Z,10.60
2022-12-25T19:52:13.829Z,10.60
2022-12-25T19:54:41.862Z,10.60
2022-12-25T19:57:11.239Z,10.60
2022-12-25T19:59:39.468Z,10.70
2022-12-25T20:02:10.868Z,10.70
2022-12-25T20:04:39.062Z,10.70
2022-12-25T20:07:07.073Z,10.70
2022-12-25T20:09:35.292Z,10.70
2022-12-25T20:12:03.609Z,10.70
2022-12-25T20:14:32.961Z,10.70
2022-12-25T20:17:01.030Z,10.60
2022-12-25T20:19:29.130Z,10.60
2022-12-25T20:21:58.498Z,10.70
2022-12-25T20:24:26.571Z,10.70
2022-12-25T20:26:59.000Z,10.60
2022-12-25T20:29:27.554Z,10.70
2022-12-25T20:31:57.037Z,10.70
2022-12-25T20:34:25.151Z,10.70
2022-12-25T20:36:53.234Z,10.60
2022-12-25T20:39:21.386Z,10.70
2022-12-25T20:41:49.406Z,10.70
2022-12-25T20:44:17.454Z,10.70
2022-12-25T20:46:45.946Z,10.70
2022-12-25T20:49:15.334Z,10.70
2022-12-25T20:51:43.517Z,10.70
2022-12-25T20:54:12.634Z,10.70
2022-12-25T20:56:41.245Z,10.70
2022-12-25T20:59:11.488Z,10.70
2022-12-25T21:01:39.631Z,10.70
2022-12-25T21:04:11.619Z,10.80
2022-12-25T21:06:45.361Z,10.80
2022-12-25T21:09:13.455Z,10.80
2022-12-25T21:11:41.475Z,10.80
2022-12-25T21:14:09.524Z,10.80
2022-12-25T21:16:37.628Z,10.80
2022-12-25T21:19:05.696Z,10.90
2022-12-25T21:21:35.863Z,10.80
2022-12-25T21:24:05.598Z,10.90
2022-12-25T21:26:33.631Z,10.90
2022-12-25T21:29:03.704Z,10.90
2022-12-25T21:31:52.532Z,10.80
2022-12-25T21:34:19.581Z,10.80
2022-12-25T21:36:47.648Z,10.80
2022-12-25T21:39:17.028Z,10.80
2022-12-25T21:41:45.302Z,10.80
2022-12-25T21:44:13.296Z,10.90
2022-12-25T21:46:41.355Z,10.90
2022-12-25T21:49:10.709Z,10.90
2022-12-25T21:51:56.163Z,10.90
2022-12-25T21:54:25.586Z,10.90
2022-12-25T21:56:53.837Z,10.90
2022-12-25T21:59:23.096Z,10.90
2022-12-25T22:01:52.596Z,10.90
2022-12-25T22:04:23.300Z,10.90
2022-12-25T22:07:08.939Z,10.90
2022-12-25T22:09:38.761Z,10.90
2022-12-25T22:12:30.130Z,10.90
2022-12-25T22:15:15.808Z,10.90
2022-12-25T22:18:02.175Z,10.90
2022-12-25T22:20:34.408Z,10.90
2022-12-25T22:23:02.701Z,10.80
2022-12-25T22:25:30.841Z,10.90
2022-12-25T22:27:59.044Z,10.90
2022-12-25T22:30:30.337Z,10.90
2022-12-25T22:32:58.455Z,11.00
2022-12-25T22:35:26.658Z,10.90
2022-12-25T22:37:55.186Z,10.90
2022-12-25T22:40:23.234Z,10.80
2022-12-25T22:42:54.700Z,10.80
2022-12-25T22:45:23.020Z,10.90
2022-12-25T22:47:52.423Z,10.90
2022-12-25T22:50:20.571Z,10.90
2022-12-25T22:52:48.656Z,10.80
2022-12-25T22:55:19.984Z,10.90
2022-12-25T22:57:48.884Z,10.80
2022-12-25T23:00:17.099Z,10.80
2022-12-25T23:02:45.287Z,10.80
2022-12-25T23:05:14.754Z,10.80
2022-12-25T23:07:42.918Z,10.80
2022-12-25T23:10:11.777Z,10.80
2022-12-25T23:12:57.286Z,10.90
2022-12-25T23:15:27.474Z,10.90
2022-12-25T23:18:13.297Z,10.90
2022-12-25T23:21:00.100Z,10.90
2022-12-25T23:23:45.403Z,10.90
2022-12-25T23:26:16.108Z,10.90
2022-12-25T23:29:02.393Z,10.80
2022-12-25T23:31:33.313Z,10.90
2022-12-25T23:34:01.795Z,10.90
2022-12-25T23:36:31.170Z,10.90
2022-12-25T23:39:04.742Z,10.90
2022-12-25T23:41:36.850Z,11.00
2022-12-25T23:44:05.459Z,11.00
2022-12-25T23:46:33.601Z,11.00
2022-12-25T23:49:01.794Z,11.00
2022-12-25T23:51:31.145Z,11.00
2022-12-25T23:53:59.230Z,11.00
2022-12-25T23:56:27.260Z,11.00
2022-12-25T23:58:55.260Z,11.00
